createdAt,value
2023-04-13T00:01:23.752Z,99470.16
2023-04-13T00:03:52.321Z,99459.38
2023-04-13T00:06:22.794Z,99463.41
2023-04-13T00:08:54.855Z,99445.78
2023-04-13T00:11:23.040Z,99444.94
2023-04-13T00:13:50.837Z,99443.25
2023-04-13T00:16:18.845Z,99440.34
2023-04-13T00:18:46.685Z,99445.25
2023-04-13T00:21:17.318Z,99440.59
2023-04-13T00:23:46.639Z,99445.94
2023-04-13T00:26:14.491Z,99443.34
2023-04-13T00:28:45.530Z,99454.34
2023-04-13T00:31:13.404Z,99443.47
2023-04-13T00:33:41.564Z,99453.47
2023-04-13T00:36:10.496Z,99433.13
2023-04-13T00:38:39.212Z,99445.44
2023-04-13T00:41:08.598Z,99437.47
2023-04-13T00:43:36.760Z,99437.38
2023-04-13T00:46:05.335Z,99438.41
2023-04-13T00:48:36.316Z,99432.03
2023-04-13T00:51:05.844Z,99424.09
2023-04-13T00:53:34.783Z,99416.50
2023-04-13T00:56:06.091Z,99412.97
2023-04-13T00:58:36.043Z,99408.66
2023-04-13T01:01:04.369Z,99413.88
2023-04-13T01:03:34.539Z,99417.91
2023-04-13T01:06:17.825Z,99425.66
2023-04-13T01:08:49.115Z,99427.09
2023-04-13T01:11:24.613Z,99429.97
2023-04-13T01:14:02.742Z,99414.84
2023-04-13T01:16:38.226Z,99420.38
2023-04-13T01:19:11.976Z,99419.91
2023-04-13T01:21:40.340Z,99426.06
2023-04-13T01:24:22.201Z,99420.25
2023-04-13T01:26:58.575Z,99416.50
2023-04-13T01:29:29.885Z,99418.78
2023-04-13T01:32:01.345Z,99417.50
2023-04-13T01:34:29.773Z,99401.50
2023-04-13T01:36:58.184Z,99395.78
2023-04-13T01:39:32.046Z,99400.00
2023-04-13T01:42:10.120Z,99385.13
2023-04-13T01:44:40.487Z,99382.53
2023-04-13T01:47:16.692Z,99376.28
2023-04-13T01:50:10.264Z,99379.44
2023-04-13T01:52:51.212Z,99370.13
2023-04-13T01:55:19.838Z,99368.59
2023-04-13T01:57:54.930Z,99354.00
2023-04-13T02:00:32.054Z,99365.88
2023-04-13T02:03:00.229Z,99371.50
2023-04-13T02:05:28.072Z,99365.09
2023-04-13T02:07:56.494Z,99368.81
2023-04-13T02:10:24.341Z,99361.81
2023-04-13T02:12:52.816Z,99371.69
2023-04-13T02:15:21.220Z,99365.59
2023-04-13T02:17:50.434Z,99352.69
2023-04-13T02:20:19.043Z,99353.81
2023-04-13T02:22:46.922Z,99355.97
2023-04-13T02:25:17.299Z,99352.41
2023-04-13T02:27:45.427Z,99357.28
2023-04-13T02:30:13.863Z,99354.84
2023-04-13T02:32:42.706Z,99351.31
2023-04-13T02:35:12.087Z,99350.44
2023-04-13T02:37:40.996Z,99345.88
2023-04-13T02:40:13.224Z,99352.31
2023-04-13T02:42:41.665Z,99343.06
2023-04-13T02:45:12.120Z,99355.78
2023-04-13T02:47:40.277Z,99353.91
2023-04-13T02:50:09.599Z,99338.69
2023-04-13T02:52:45.206Z,99343.25
2023-04-13T02:55:13.435Z,99336.31
2023-04-13T02:57:51.468Z,99336.84
2023-04-13T03:00:20.496Z,99344.59
2023-04-13T03:02:55.709Z,99334.72
2023-04-13T03:05:26.443Z,99342.88
2023-04-13T03:07:56.983Z,99340.72
2023-04-13T03:10:25.856Z,99335.94
2023-04-13T03:12:55.513Z,99335.47
2023-04-13T03:15:23.684Z,99339.31
2023-04-13T03:17:51.603Z,99350.50
2023-04-13T03:20:23.900Z,99339.13
2023-04-13T03:23:01.760Z,99342.25
2023-04-13T03:25:34.104Z,99335.75
2023-04-13T03:28:03.621Z,99352.13
2023-04-13T03:30:37.490Z,99339.66
2023-04-13T03:33:05.766Z,99348.47
2023-04-13T03:35:37.240Z,99341.88
2023-04-13T03:38:09.417Z,99346.28
2023-04-13T03:40:39.775Z,99353.38
2023-04-13T03:43:07.536Z,99346.41
2023-04-13T03:45:39.672Z,99365.72
2023-04-13T03:48:11.125Z,99355.34
2023-04-13T03:50:39.256Z,99353.66
2023-04-13T03:53:10.405Z,99344.38
2023-04-13T03:55:38.722Z,99349.34
2023-04-13T03:58:08.534Z,99349.94
2023-04-13T04:00:36.958Z,99358.66
2023-04-13T04:03:27.692Z,99359.81
2023-04-13T04:05:58.867Z,99352.50
2023-04-13T04:08:30.471Z,99366.78
2023-04-13T04:11:02.551Z,99365.59
2023-04-13T04:13:31.489Z,99367.41
2023-04-13T04:16:03.659Z,99372.75
2023-04-13T04:18:34.146Z,99372.75
2023-04-13T04:21:03.859Z,99379.84
2023-04-13T04:23:34.702Z,99380.78
2023-04-13T04:26:05.877Z,99373.25
2023-04-13T04:28:42.438Z,99379.63
2023-04-13T04:31:15.056Z,99383.84
2023-04-13T04:33:47.075Z,99378.13
2023-04-13T04:36:17.023Z,99376.88
2023-04-13T04:38:58.144Z,99384.63
2023-04-13T04:41:27.167Z,99389.50
2023-04-13T04:44:02.752Z,99393.97
2023-04-13T04:46:38.491Z,99391.19
2023-04-13T04:49:10.223Z,99394.88
2023-04-13T04:51:39.240Z,99402.59
2023-04-13T04:54:09.291Z,99402.13
2023-04-13T04:56:37.606Z,99415.09
2023-04-13T04:59:06.689Z,99414.31
2023-04-13T05:01:47.172Z,99427.84
2023-04-13T05:04:15.174Z,99433.19
2023-04-13T05:06:44.790Z,99433.56
2023-04-13T05:09:19.765Z,99431.81
2023-04-13T05:11:51.925Z,99441.56
2023-04-13T05:14:21.514Z,99442.81
2023-04-13T05:16:49.807Z,99455.72
2023-04-13T05:19:25.153Z,99448.09
2023-04-13T05:21:57.197Z,99455.09
2023-04-13T05:24:27.202Z,99454.81
2023-04-13T05:26:59.753Z,99461.56
2023-04-13T05:29:27.956Z,99458.78
2023-04-13T05:31:55.790Z,99463.81
2023-04-13T05:34:24.204Z,99460.28
2023-04-13T05:37:05.342Z,99458.53
2023-04-13T05:39:34.811Z,99463.25
2023-04-13T05:42:03.085Z,99462.88
2023-04-13T05:44:34.469Z,99460.78
2023-04-13T05:47:02.800Z,99478.22
2023-04-13T05:49:33.602Z,99476.00
2023-04-13T05:52:01.812Z,99483.63
2023-04-13T05:54:41.643Z,99491.03
2023-04-13T05:57:09.497Z,99487.06
2023-04-13T05:59:42.033Z,99503.84
2023-04-13T06:02:10.794Z,99501.38
2023-04-13T06:04:38.967Z,99501.00
2023-04-13T06:07:07.238Z,99501.53
2023-04-13T06:09:35.007Z,99511.88
2023-04-13T06:12:04.591Z,99518.84
2023-04-13T06:14:32.556Z,99532.19
2023-04-13T06:17:00.678Z,99528.34
2023-04-13T06:19:29.243Z,99541.03
2023-04-13T06:21:58.525Z,99553.16
2023-04-13T06:24:27.270Z,99548.31
2023-04-13T06:26:57.027Z,99537.75
2023-04-13T06:29:26.630Z,99551.38
2023-04-13T06:32:02.635Z,99552.59
2023-04-13T06:34:31.311Z,99551.13
2023-04-13T06:36:59.390Z,99556.50
2023-04-13T06:39:29.052Z,99558.31
2023-04-13T06:42:01.422Z,99556.59
2023-04-13T06:45:03.837Z,99562.09
2023-04-13T06:47:41.878Z,99560.38
2023-04-13T06:50:15.531Z,99573.28
2023-04-13T06:52:45.192Z,99567.50
2023-04-13T06:55:13.469Z,99562.28
2023-04-13T06:57:42.592Z,99570.56
2023-04-13T07:00:26.485Z,99573.88
2023-04-13T07:02:56.849Z,99576.38
2023-04-13T07:05:24.803Z,99577.84
2023-04-13T07:07:55.274Z,99588.34
2023-04-13T07:10:24.540Z,99593.88
2023-04-13T07:12:54.421Z,99602.75
2023-04-13T07:15:26.849Z,99604.00
2023-04-13T07:17:55.999Z,99599.81
2023-04-13T07:20:24.077Z,99600.25
2023-04-13T07:22:52.260Z,99610.41
2023-04-13T07:25:21.807Z,99612.38
2023-04-13T07:27:50.221Z,99620.22
2023-04-13T07:30:18.463Z,99618.41
2023-04-13T07:32:49.632Z,99616.69
2023-04-13T07:35:17.818Z,99622.91
2023-04-13T07:37:50.734Z,99611.53
2023-04-13T07:40:20.911Z,99622.63
2023-04-13T07:42:51.995Z,99618.09
2023-04-13T07:45:21.200Z,99631.59
2023-04-13T07:47:52.708Z,99639.50
2023-04-13T07:50:20.647Z,99624.31
2023-04-13T07:52:48.695Z,99641.84
2023-04-13T07:55:21.100Z,99647.03
2023-04-13T07:57:50.100Z,99638.50
2023-04-13T08:00:20.657Z,99640.78
2023-04-13T08:02:55.689Z,99652.16
2023-04-13T08:05:25.275Z,99644.63
2023-04-13T08:07:53.668Z,99660.28
2023-04-13T08:10:21.522Z,99669.78
2023-04-13T08:12:49.580Z,99664.16
2023-04-13T08:15:19.966Z,99655.50
2023-04-13T08:17:48.150Z,99675.38
2023-04-13T08:20:21.265Z,99671.53
2023-04-13T08:22:52.262Z,99662.28
2023-04-13T08:25:21.889Z,99668.97
2023-04-13T08:27:49.685Z,99672.31
2023-04-13T08:30:17.845Z,99680.31
2023-04-13T08:32:54.858Z,99687.44
2023-04-13T08:35:25.894Z,99682.66
2023-04-13T08:37:53.987Z,99702.97
2023-04-13T08:40:22.773Z,99684.50
2023-04-13T08:42:55.613Z,99691.25
2023-04-13T08:45:24.064Z,99693.47
2023-04-13T08:47:52.991Z,99698.88
2023-04-13T08:50:26.951Z,99706.59
2023-04-13T08:52:56.567Z,99712.75
2023-04-13T08:55:26.580Z,99705.59
2023-04-13T08:57:59.496Z,99723.09
2023-04-13T09:00:28.387Z,99717.19
2023-04-13T09:03:07.051Z,99726.78
2023-04-13T09:05:43.497Z,99734.88
2023-04-13T09:08:13.747Z,99722.13
2023-04-13T09:10:45.133Z,99734.34
2023-04-13T09:13:13.341Z,99737.75
2023-04-13T09:15:43.104Z,99748.31
2023-04-13T09:18:26.063Z,99757.66
2023-04-13T09:21:02.290Z,99763.72
2023-04-13T09:23:30.292Z,99766.91
2023-04-13T09:26:09.049Z,99762.22
2023-04-13T09:28:47.747Z,99758.06
2023-04-13T09:31:16.394Z,99760.34
2023-04-13T09:33:48.751Z,99773.56
2023-04-13T09:36:19.705Z,99773.44
2023-04-13T09:38:52.543Z,99777.38
2023-04-13T09:41:29.840Z,99788.06
2023-04-13T09:43:58.575Z,99801.16
2023-04-13T09:46:26.413Z,99827.06
2023-04-13T09:49:02.847Z,99799.63
2023-04-13T09:51:39.516Z,99808.19
2023-04-13T09:54:08.136Z,99821.59
2023-04-13T09:56:52.540Z,99816.69
2023-04-13T09:59:20.436Z,99830.75
2023-04-13T10:01:49.286Z,99820.78
2023-04-13T10:04:17.441Z,99822.44
2023-04-13T10:06:46.941Z,99838.06
2023-04-13T10:09:15.454Z,99845.69
2023-04-13T10:11:46.685Z,99844.03
2023-04-13T10:14:17.818Z,99842.81
2023-04-13T10:17:08.301Z,99857.69
2023-04-13T10:19:43.259Z,99853.78
2023-04-13T10:22:13.032Z,99851.59
2023-04-13T10:24:41.591Z,99860.50
2023-04-13T10:27:15.006Z,99862.81
2023-04-13T10:29:44.936Z,99868.06
2023-04-13T10:32:22.645Z,99883.38
2023-04-13T10:34:52.874Z,99893.84
2023-04-13T10:37:24.113Z,99886.31
2023-04-13T10:40:05.535Z,99897.66
2023-04-13T10:42:51.714Z,99895.78
2023-04-13T10:45:24.032Z,99895.28
2023-04-13T10:47:53.416Z,99902.94
2023-04-13T10:50:22.988Z,99912.41
2023-04-13T10:53:00.107Z,99903.16
2023-04-13T10:55:28.955Z,99902.91
2023-04-13T10:57:57.675Z,99909.94
2023-04-13T11:00:38.367Z,99910.84
2023-04-13T11:03:15.323Z,99923.13
2023-04-13T11:05:44.873Z,99917.53
2023-04-13T11:08:20.535Z,99952.94
2023-04-13T11:10:52.630Z,99965.50
2023-04-13T11:13:20.818Z,99955.84
2023-04-13T11:15:50.591Z,99962.56
2023-04-13T11:18:27.157Z,99978.31
2023-04-13T11:20:55.910Z,99981.19
2023-04-13T11:23:25.581Z,99972.72
2023-04-13T11:25:55.147Z,99976.72
2023-04-13T11:28:23.817Z,99979.00
2023-04-13T11:30:56.700Z,99992.06
2023-04-13T11:33:25.841Z,99997.06
2023-04-13T11:35:55.490Z,99991.03
2023-04-13T11:38:23.661Z,100009.72
2023-04-13T11:41:07.937Z,99996.81
2023-04-13T11:43:41.926Z,99996.22
2023-04-13T11:46:12.764Z,99987.88
2023-04-13T11:48:41.390Z,99994.06
2023-04-13T11:51:11.102Z,100003.50
2023-04-13T11:53:39.669Z,99989.84
2023-04-13T11:56:09.631Z,99998.66
2023-04-13T11:58:39.452Z,99999.66
2023-04-13T12:03:56.946Z,100005.16
2023-04-13T12:06:29.053Z,100037.84
2023-04-13T12:09:09.081Z,100021.28
2023-04-13T12:11:43.942Z,100029.41
2023-04-13T12:14:49.268Z,100030.94
2023-04-13T12:19:46.544Z,100046.88
2023-04-13T12:22:15.232Z,100060.34
2023-04-13T12:24:43.195Z,100057.88
2023-04-13T12:29:43.432Z,100060.28
2023-04-13T12:32:14.285Z,100060.84
2023-04-13T12:34:43.017Z,100070.56
2023-04-13T12:37:11.843Z,100081.69
2023-04-13T12:39:39.847Z,100102.63
2023-04-13T12:42:09.102Z,100103.81
2023-04-13T12:44:38.763Z,100125.50
2023-04-13T12:47:06.960Z,100102.13
2023-04-13T12:49:34.955Z,100131.47
2023-04-13T12:52:02.754Z,100124.31
2023-04-13T12:54:30.943Z,100158.25
2023-04-13T12:56:59.727Z,100144.34
2023-04-13T12:59:27.644Z,100160.50
2023-04-13T13:01:58.705Z,100148.91
2023-04-13T13:04:30.061Z,100181.53
2023-04-13T13:06:58.107Z,100188.31
2023-04-13T13:09:25.915Z,100173.25
2023-04-13T13:11:53.861Z,100173.84
2023-04-13T13:14:21.846Z,100177.72
2023-04-13T13:16:50.568Z,100184.41
2023-04-13T13:19:19.873Z,100176.84
2023-04-13T13:21:47.807Z,100180.28
2023-04-13T13:24:15.876Z,100194.34
2023-04-13T13:27:10.151Z,100184.81
2023-04-13T13:29:33.454Z,100201.13
2023-04-13T13:32:01.386Z,100197.47
2023-04-13T13:34:30.703Z,100208.13
2023-04-13T13:36:59.054Z,100211.38
2023-04-13T13:39:27.345Z,100215.00
2023-04-13T13:41:55.255Z,100221.44
2023-04-13T13:44:23.315Z,100219.81
2023-04-13T13:46:51.130Z,100219.59
2023-04-13T13:49:21.448Z,100238.53
2023-04-13T13:52:09.570Z,100247.13
2023-04-13T13:54:45.935Z,100244.00
2023-04-13T13:57:13.845Z,100263.31
2023-04-13T13:59:41.794Z,100246.13
2023-04-13T14:02:10.024Z,100256.69
2023-04-13T14:04:38.453Z,100260.31
2023-04-13T14:07:06.599Z,100261.97
2023-04-13T14:09:36.116Z,100273.97
2023-04-13T14:12:05.246Z,100278.56
2023-04-13T14:14:33.261Z,100275.19
2023-04-13T14:17:01.155Z,100273.69
2023-04-13T14:19:28.961Z,100297.31
2023-04-13T14:21:57.411Z,100282.00
2023-04-13T14:24:26.494Z,100289.44
2023-04-13T14:26:55.982Z,100283.66
2023-04-13T14:29:23.866Z,100301.91
2023-04-13T14:31:52.566Z,100300.56
2023-04-13T14:34:20.615Z,100307.06
2023-04-13T14:36:51.141Z,100318.00
2023-04-13T14:39:21.024Z,100320.19
2023-04-13T14:41:49.189Z,100321.59
2023-04-13T14:44:18.425Z,100317.47
2023-04-13T14:46:46.813Z,100328.19
2023-04-13T14:49:17.800Z,100332.31
2023-04-13T14:51:45.749Z,100336.16
2023-04-13T14:54:14.015Z,100350.78
2023-04-13T14:56:41.768Z,100344.50
2023-04-13T14:59:09.821Z,100358.78
2023-04-13T15:01:39.975Z,100356.75
2023-04-13T15:04:08.221Z,100350.59
2023-04-13T15:06:37.111Z,100365.84
2023-04-13T15:09:06.573Z,100371.25
2023-04-13T15:11:34.601Z,100365.72
2023-04-13T15:14:02.584Z,100378.22
2023-04-13T15:16:30.718Z,100391.13
2023-04-13T15:19:00.709Z,100378.06
2023-04-13T15:21:28.854Z,100387.72
2023-04-13T15:23:56.824Z,100382.09
2023-04-13T15:26:25.045Z,100401.31
2023-04-13T15:28:52.857Z,100387.66
2023-04-13T15:31:22.848Z,100388.53
2023-04-13T15:33:51.774Z,100387.16
2023-04-13T15:36:21.392Z,100405.56
2023-04-13T15:38:49.453Z,100406.59
2023-04-13T15:41:20.064Z,100417.63
2023-04-13T15:43:48.187Z,100408.06
2023-04-13T15:46:17.746Z,100445.16
2023-04-13T15:48:46.744Z,100425.97
2023-04-13T15:51:14.532Z,100427.47
2023-04-13T15:53:43.843Z,100418.94
2023-04-13T15:56:11.870Z,100433.56
2023-04-13T15:58:40.054Z,100431.50
2023-04-13T16:01:10.117Z,100435.88
2023-04-13T16:03:39.453Z,100428.94
2023-04-13T16:06:08.682Z,100436.56
2023-04-13T16:08:37.365Z,100434.84
2023-04-13T16:11:07.830Z,100433.72
2023-04-13T16:13:48.618Z,100442.69
2023-04-13T16:16:18.601Z,100451.25
2023-04-13T16:18:46.506Z,100446.38
2023-04-13T16:21:19.106Z,100446.19
2023-04-13T16:23:47.541Z,100439.00
2023-04-13T16:26:16.767Z,100450.75
2023-04-13T16:28:44.478Z,100453.28
2023-04-13T16:31:12.500Z,100452.63
2023-04-13T16:33:41.438Z,100448.53
2023-04-13T16:36:10.324Z,100460.94
2023-04-13T16:38:40.309Z,100461.06
2023-04-13T16:41:08.236Z,100463.50
2023-04-13T16:43:37.662Z,100455.25
2023-04-13T16:46:06.600Z,100465.94
2023-04-13T16:48:34.569Z,100475.94
2023-04-13T16:51:03.632Z,100468.00
2023-04-13T16:53:31.836Z,100477.34
2023-04-13T16:56:00.008Z,100496.56
2023-04-13T16:58:27.875Z,100490.88
2023-04-13T17:00:57.509Z,100483.69
2023-04-13T17:03:26.338Z,100479.41
2023-04-13T17:05:55.635Z,100476.84
2023-04-13T17:08:23.676Z,100486.78
2023-04-13T17:10:52.557Z,100486.00
2023-04-13T17:13:20.807Z,100491.38
2023-04-13T17:15:49.201Z,100508.06
2023-04-13T17:18:18.481Z,100498.00
2023-04-13T17:20:54.948Z,100508.00
2023-04-13T17:23:23.622Z,100509.34
2023-04-13T17:25:54.280Z,100517.06
2023-04-13T17:28:23.600Z,100510.75
2023-04-13T17:30:59.364Z,100521.94
2023-04-13T17:33:31.505Z,100522.06
2023-04-13T17:36:02.417Z,100515.88
2023-04-13T17:38:30.553Z,100520.44
2023-04-13T17:40:58.673Z,100529.44
2023-04-13T17:43:26.647Z,100531.88
2023-04-13T17:45:54.623Z,100533.38
2023-04-13T17:48:22.439Z,100541.41
2023-04-13T17:50:52.337Z,100556.91
2023-04-13T17:53:20.325Z,100562.31
2023-04-13T17:55:48.510Z,100564.81
2023-04-13T17:58:16.729Z,100570.88
2023-04-13T18:00:44.897Z,100572.03
2023-04-13T18:03:14.118Z,100581.63
2023-04-13T18:05:45.457Z,100579.03
2023-04-13T18:08:14.790Z,100583.69
2023-04-13T18:10:43.196Z,100588.59
2023-04-13T18:13:11.280Z,100586.88
2023-04-13T18:15:39.382Z,100600.50
2023-04-13T18:18:07.723Z,100598.13
2023-04-13T18:20:36.090Z,100602.19
2023-04-13T18:23:04.653Z,100617.03
2023-04-13T18:25:33.995Z,100612.41
2023-04-13T18:28:01.749Z,100617.53
2023-04-13T18:30:29.590Z,100628.94
2023-04-13T18:32:57.787Z,100626.41
2023-04-13T18:35:26.455Z,100628.56
2023-04-13T18:37:54.523Z,100639.31
2023-04-13T18:40:22.545Z,100640.84
2023-04-13T18:42:51.741Z,100648.88
2023-04-13T18:45:19.991Z,100650.72
2023-04-13T18:47:48.129Z,100649.66
2023-04-13T18:50:16.503Z,100662.63
2023-04-13T18:52:44.454Z,100667.03
2023-04-13T18:55:12.575Z,100670.50
2023-04-13T18:57:41.793Z,100676.25
2023-04-13T19:00:13.507Z,100685.28
2023-04-13T19:02:42.374Z,100680.31
2023-04-13T19:05:13.383Z,100687.50
2023-04-13T19:07:42.345Z,100692.75
2023-04-13T19:10:11.228Z,100694.78
2023-04-13T19:12:39.242Z,100695.13
2023-04-13T19:15:08.131Z,100702.09
2023-04-13T19:17:37.939Z,100702.44
2023-04-13T19:20:10.417Z,100701.75
2023-04-13T19:22:39.578Z,100695.09
2023-04-13T19:25:14.280Z,100705.44
2023-04-13T19:27:44.544Z,100704.25
2023-04-13T19:30:14.574Z,100704.25
2023-04-13T19:32:46.837Z,100709.22
2023-04-13T19:35:16.739Z,100709.38
2023-04-13T19:37:45.627Z,100711.44
2023-04-13T19:40:15.353Z,100714.50
2023-04-13T19:42:45.769Z,100717.41
2023-04-13T19:45:15.854Z,100720.28
2023-04-13T19:47:47.550Z,100716.88
2023-04-13T19:50:16.689Z,100710.41
2023-04-13T19:52:47.185Z,100722.84
2023-04-13T19:55:16.447Z,100720.59
2023-04-13T19:57:44.631Z,100723.47
2023-04-13T20:00:22.407Z,100727.38
2023-04-13T20:02:53.016Z,100725.66
2023-04-13T20:05:22.706Z,100731.09
2023-04-13T20:07:50.723Z,100722.25
2023-04-13T20:10:19.544Z,100721.44
2023-04-13T20:12:47.910Z,100732.66
2023-04-13T20:15:16.289Z,100728.22
2023-04-13T20:17:44.732Z,100731.13
2023-04-13T20:20:14.529Z,100737.81
2023-04-13T20:22:43.613Z,100734.63
2023-04-13T20:25:11.708Z,100739.06
2023-04-13T20:27:41.736Z,100735.44
2023-04-13T20:30:11.088Z,100737.50
2023-04-13T20:32:39.679Z,100736.50
2023-04-13T20:35:09.581Z,100735.34
2023-04-13T20:37:39.153Z,100742.84
2023-04-13T20:40:10.903Z,100739.78
2023-04-13T20:42:41.742Z,100736.06
2023-04-13T20:45:10.982Z,100744.41
2023-04-13T20:47:42.335Z,100745.75
2023-04-13T20:50:11.183Z,100741.72
2023-04-13T20:52:42.693Z,100756.16
2023-04-13T20:55:12.064Z,100751.25
2023-04-13T20:57:42.151Z,100746.78
2023-04-13T21:00:15.324Z,100751.03
2023-04-13T21:02:44.396Z,100754.63
2023-04-13T21:05:12.624Z,100760.69
2023-04-13T21:07:42.081Z,100757.25
2023-04-13T21:10:12.123Z,100766.13
2023-04-13T21:12:39.885Z,100759.78
2023-04-13T21:15:09.426Z,100773.19
2023-04-13T21:17:37.477Z,100766.94
2023-04-13T21:20:08.699Z,100764.34
2023-04-13T21:22:36.711Z,100768.47
2023-04-13T21:25:07.032Z,100769.94
2023-04-13T21:27:34.914Z,100770.06
2023-04-13T21:30:03.352Z,100776.69
2023-04-13T21:32:31.243Z,100772.19
2023-04-13T21:35:00.450Z,100777.44
2023-04-13T21:37:29.659Z,100770.66
2023-04-13T21:39:57.796Z,100779.28
2023-04-13T21:42:27.254Z,100772.66
2023-04-13T21:44:56.849Z,100775.19
2023-04-13T21:47:25.314Z,100773.91
2023-04-13T21:49:53.292Z,100782.06
2023-04-13T21:52:21.297Z,100784.72
2023-04-13T21:54:51.020Z,100789.34
2023-04-13T21:57:20.068Z,100789.81
2023-04-13T21:59:49.657Z,100792.97
2023-04-13T22:02:17.916Z,100784.81
2023-04-13T22:04:45.895Z,100792.16
2023-04-13T22:07:15.876Z,100786.94
2023-04-13T22:09:43.717Z,100796.06
2023-04-13T22:12:12.049Z,100800.28
2023-04-13T22:14:40.489Z,100798.78
2023-04-13T22:17:10.300Z,100806.09
2023-04-13T22:19:38.214Z,100802.38
2023-04-13T22:22:05.999Z,100801.13
2023-04-13T22:24:33.950Z,100809.28
2023-04-13T22:27:03.664Z,100809.13
2023-04-13T22:29:32.014Z,100806.56
2023-04-13T22:31:59.925Z,100803.41
2023-04-13T22:34:29.116Z,100815.16
2023-04-13T22:36:58.737Z,100813.97
2023-04-13T22:39:26.707Z,100807.50
2023-04-13T22:41:54.508Z,100812.22
2023-04-13T22:44:22.520Z,100813.94
2023-04-13T22:46:50.397Z,100814.50
2023-04-13T22:49:18.146Z,100805.34
2023-04-13T22:51:47.493Z,100808.06
2023-04-13T22:54:15.533Z,100810.97
2023-04-13T22:56:43.312Z,100814.53
2023-04-13T22:59:11.049Z,100812.38
2023-04-13T23:01:39.293Z,100818.03
2023-04-13T23:04:07.160Z,100823.38
2023-04-13T23:06:36.710Z,100820.91
2023-04-13T23:09:06.295Z,100822.63
2023-04-13T23:11:34.035Z,100822.47
2023-04-13T23:14:02.068Z,100822.22
2023-04-13T23:16:29.875Z,100834.91
2023-04-13T23:18:58.265Z,100831.69
2023-04-13T23:21:29.650Z,100830.28
2023-04-13T23:23:58.135Z,100826.78
2023-04-13T23:26:27.589Z,100830.28
2023-04-13T23:28:56.010Z,100829.31
2023-04-13T23:31:23.901Z,100832.09
2023-04-13T23:33:53.440Z,100834.38
2023-04-13T23:36:22.230Z,100842.38
2023-04-13T23:38:51.056Z,100838.97
2023-04-13T23:41:19.044Z,100838.53
2023-04-13T23:43:48.331Z,100844.28
2023-04-13T23:46:17.186Z,100839.47
2023-04-13T23:48:45.165Z,100850.53
2023-04-13T23:51:12.992Z,100847.09
2023-04-13T23:53:41.307Z,100853.44
2023-04-13T23:56:09.251Z,100856.09
2023-04-13T23:58:37.048Z,100850.72
